Time;durP1;ratioP1;P1;durP2;ratioP2;P2;SDS_P1;SDS_P2;PMS_P1;PMS_P2;Temp;Humidity;BMP_temperature;BMP_pressure;BME280_temperature;BME280_humidity;BME280_pressure;Samples;Min_cycle;Max_cycle;Signal;HPM_P1;HPM_P2
2023/05/18 00:01:32;;;;;;;3.95;2.13;;;;;;;8.24;63.02;102703.16;5033173;28;20068;-76
2023/05/18 00:03:58;;;;;;;3.08;1.52;;;;;;;8.19;63.53;102708.31;5033341;28;20083;-76
2023/05/18 00:06:26;;;;;;;2.95;1.23;;;;;;;8.16;63.31;102705.66;5034047;28;20084;-76
2023/05/18 00:08:52;;;;;;;5.47;1.60;;;;;;;8.14;63.30;102702.16;5033244;28;20030;-76
2023/05/18 00:11:17;;;;;;;5.40;1.73;;;;;;;8.11;63.64;102702.13;5035260;28;20018;-76
2023/05/18 00:13:42;;;;;;;5.82;1.70;;;;;;;8.02;64.16;102701.16;5028191;28;21502;-76
2023/05/18 00:16:08;;;;;;;5.60;1.45;;;;;;;8.00;63.58;102700.25;5031003;28;20080;-76
2023/05/18 00:18:33;;;;;;;4.28;1.73;;;;;;;7.98;63.72;102701.06;5028159;28;20060;-76
2023/05/18 00:20:59;;;;;;;5.70;1.80;;;;;;;7.92;63.81;102701.84;5031476;28;20025;-76
2023/05/18 00:23:31;;;;;;;6.32;1.60;;;;;;;7.89;63.71;102706.97;5032352;28;20034;-76
2023/05/18 00:26:01;;;;;;;4.30;1.90;;;;;;;7.82;63.84;102698.22;5033875;28;20498;-76
2023/05/18 00:28:27;;;;;;;5.03;1.67;;;;;;;7.82;64.06;102707.72;5033764;28;20025;-76
2023/05/18 00:30:53;;;;;;;5.50;1.60;;;;;;;7.77;64.38;102697.28;5033677;28;20109;-76
2023/05/18 00:33:19;;;;;;;6.80;1.70;;;;;;;7.76;64.32;102705.94;5033389;28;20104;-76
2023/05/18 00:35:44;;;;;;;3.85;1.75;;;;;;;7.72;64.56;102711.91;5033792;28;20033;-76
2023/05/18 00:38:11;;;;;;;5.10;1.60;;;;;;;7.70;64.01;102700.63;5032793;28;20025;-76
2023/05/18 00:40:37;;;;;;;5.03;1.98;;;;;;;7.66;64.48;102710.09;5033489;28;20120;-76
2023/05/18 00:43:02;;;;;;;4.43;1.73;;;;;;;7.62;64.35;102708.28;5032651;28;20036;-76
2023/05/18 00:45:27;;;;;;;5.07;1.70;;;;;;;7.58;64.88;102711.66;5034569;28;20026;-76
2023/05/18 00:47:52;;;;;;;5.90;2.15;;;;;;;7.54;65.05;102715.03;5032501;28;20029;-76
2023/05/18 00:50:18;;;;;;;6.75;1.95;;;;;;;7.52;64.74;102708.94;5033422;28;20026;-76
2023/05/18 00:52:45;;;;;;;4.68;1.83;;;;;;;7.46;65.17;102701.94;5032707;28;20045;-76
2023/05/18 00:55:11;;;;;;;3.42;1.65;;;;;;;7.43;65.11;102707.97;5032832;28;20029;-76
2023/05/18 00:57:37;;;;;;;4.53;1.67;;;;;;;7.38;65.28;102704.41;5032491;28;20473;-76
2023/05/18 01:00:06;;;;;;;4.15;1.90;;;;;;;7.32;65.91;102709.50;5032482;28;20067;-76
2023/05/18 01:02:31;;;;;;;4.53;1.80;;;;;;;7.31;65.41;102706.84;5035058;28;20044;-75
2023/05/18 01:04:56;;;;;;;6.70;1.73;;;;;;;7.26;65.85;102707.63;5033025;28;20516;-75
2023/05/18 01:07:25;;;;;;;5.05;1.75;;;;;;;7.23;66.30;102706.72;5033171;28;20489;-76
2023/05/18 01:09:52;;;;;;;5.50;2.00;;;;;;;7.20;66.85;102709.25;5031368;28;20140;-76
2023/05/18 01:12:23;;;;;;;5.07;1.75;;;;;;;7.17;66.22;102715.25;5028188;28;20072;-75
2023/05/18 01:14:58;;;;;;;3.83;1.70;;;;;;;7.13;66.02;102709.16;5025931;28;20029;-76
2023/05/18 01:17:48;;;;;;;5.40;1.98;;;;;;;7.11;65.58;102721.19;5030927;28;20038;-76
2023/05/18 01:20:26;;;;;;;6.72;1.65;;;;;;;7.09;66.39;102717.69;5034604;28;20060;-76
2023/05/18 01:23:04;;;;;;;3.35;1.70;;;;;;;7.05;67.07;102715.88;5030464;28;20091;-76
2023/05/18 01:25:30;;;;;;;3.72;1.67;;;;;;;7.01;67.03;102719.25;5029512;28;20033;-76
2023/05/18 01:27:58;;;;;;;3.45;1.70;;;;;;;7.01;66.65;102718.38;5031422;28;20083;-76
2023/05/18 01:30:25;;;;;;;5.55;1.77;;;;;;;6.99;67.18;102726.13;5032230;28;20017;-75
2023/05/18 01:32:50;;;;;;;5.22;1.60;;;;;;;6.97;67.29;102727.81;5031116;28;20029;-75
2023/05/18 01:35:15;;;;;;;5.38;1.73;;;;;;;6.98;66.92;102721.81;5031743;28;20052;-76
2023/05/18 01:37:40;;;;;;;5.65;1.92;;;;;;;6.95;67.74;102721.72;5030405;28;20079;-75
2023/05/18 01:40:08;;;;;;;3.22;1.85;;;;;;;6.94;67.01;102725.16;5030297;28;20028;-76
2023/05/18 01:42:41;;;;;;;3.35;1.83;;;;;;;6.91;67.27;102722.50;5031878;28;20027;-75
2023/05/18 01:45:15;;;;;;;4.47;1.88;;;;;;;6.91;67.24;102725.97;5031793;28;20108;-75
2023/05/18 01:47:45;;;;;;;5.47;1.75;;;;;;;6.85;67.36;102720.69;5030652;28;20189;-76
2023/05/18 01:50:17;;;;;;;3.13;1.65;;;;;;;6.86;67.22;102724.13;5031560;28;20017;-75
2023/05/18 01:52:42;;;;;;;;;;;;;;;6.92;64.33;102724.25;5034078;28;20045;-76
2023/05/18 01:55:09;;;;;;;2.95;1.70;;;;;;;6.84;66.61;102718.94;5032196;28;20379;-76
2023/05/18 01:57:37;;;;;;;5.63;1.75;;;;;;;6.78;67.41;102718.78;5032347;28;20021;-75
2023/05/18 02:00:07;;;;;;;4.65;2.00;;;;;;;6.75;67.53;102716.13;5030300;28;20032;-76
2023/05/18 02:02:33;;;;;;;4.28;1.70;;;;;;;6.73;67.85;102716.13;5029804;28;20041;-76
2023/05/18 02:04:58;;;;;;;4.70;1.80;;;;;;;6.71;66.96;102720.38;5032092;28;20025;-75
2023/05/18 02:07:24;;;;;;;5.65;2.10;;;;;;;6.69;67.83;102722.06;5031719;28;20108;-76
2023/05/18 02:09:49;;;;;;;4.68;1.95;;;;;;;6.67;67.57;102716.88;5031454;28;20511;-75
2023/05/18 02:12:15;;;;;;;6.45;2.17;;;;;;;6.68;67.51;102712.56;5030484;28;20037;-75
2023/05/18 02:14:40;;;;;;;4.80;2.13;;;;;;;6.65;68.57;102715.09;5031552;28;20056;-75
2023/05/18 02:17:06;;;;;;;5.60;1.90;;;;;;;6.63;68.41;102706.44;5031293;28;20029;-76
2023/05/18 02:19:32;;;;;;;2.90;1.60;;;;;;;6.63;68.40;102712.47;5031421;28;20037;-75
2023/05/18 02:21:57;;;;;;;6.28;1.83;;;;;;;6.63;68.13;102709.88;5030593;28;20119;-76
2023/05/18 02:24:23;;;;;;;8.80;1.90;;;;;;;6.59;68.38;102702.03;5031956;28;20600;-75
2023/05/18 02:26:49;;;;;;;5.80;2.00;;;;;;;6.61;68.20;102702.94;5032846;28;20116;-76
2023/05/18 02:29:14;;;;;;;7.45;2.13;;;;;;;6.62;68.09;102702.09;5031471;28;20033;-75
2023/05/18 02:31:40;;;;;;;5.57;2.13;;;;;;;6.59;68.40;102705.47;5031350;28;20053;-76
2023/05/18 02:34:05;;;;;;;4.90;1.98;;;;;;;6.60;68.04;102696.03;5031302;28;20025;-75
2023/05/18 02:36:35;;;;;;;5.50;1.95;;;;;;;6.55;68.58;102692.47;5031018;28;20029;-75
2023/05/18 02:39:03;;;;;;;7.10;2.05;;;;;;;6.52;68.57;102696.72;5029840;28;20116;-76
2023/05/18 02:41:29;;;;;;;7.05;2.20;;;;;;;6.52;68.69;102699.31;5033320;28;20025;-76
2023/05/18 02:43:54;;;;;;;4.80;1.88;;;;;;;6.49;68.55;102694.06;5032130;28;20170;-76
2023/05/18 02:46:19;;;;;;;5.38;1.90;;;;;;;6.48;68.83;102694.94;5034707;28;20082;-76
2023/05/18 02:48:44;;;;;;;5.95;2.00;;;;;;;6.45;69.25;102700.03;5033231;28;20080;-76
2023/05/18 02:51:10;;;;;;;5.63;2.00;;;;;;;6.44;69.13;102697.41;5032446;28;20236;-76
2023/05/18 02:53:35;;;;;;;4.70;2.10;;;;;;;6.44;69.29;102692.22;5033936;28;20045;-75
2023/05/18 02:56:02;;;;;;;5.72;1.80;;;;;;;6.41;69.38;102698.22;5035201;28;20762;-75
2023/05/18 02:58:28;;;;;;;4.22;1.77;;;;;;;6.41;69.18;102700.81;5035533;28;20029;-75
2023/05/18 03:00:58;;;;;;;4.03;1.75;;;;;;;6.41;69.18;102699.91;5033836;28;20337;-75
2023/05/18 03:03:24;;;;;;;6.00;2.30;;;;;;;6.39;69.17;102692.13;5035396;28;20147;-76
2023/05/18 03:05:52;;;;;;;5.43;1.92;;;;;;;6.38;69.71;102695.56;5035226;28;20218;-76
2023/05/18 03:08:21;;;;;;;4.20;2.05;;;;;;;6.36;69.82;102698.13;5035328;28;20464;-76
2023/05/18 03:10:47;;;;;;;4.20;2.03;;;;;;;6.36;70.39;102698.13;5034224;28;20205;-76
2023/05/18 03:13:13;;;;;;;5.15;1.90;;;;;;;6.37;69.44;102694.69;5032530;28;20036;-76
2023/05/18 03:15:39;;;;;;;3.28;2.03;;;;;;;6.36;70.73;102697.22;5033757;28;20021;-76
2023/05/18 03:18:04;;;;;;;3.55;1.90;;;;;;;6.36;70.80;102699.81;5035214;28;20468;-76
2023/05/18 03:20:30;;;;;;;5.43;2.13;;;;;;;6.37;70.56;102698.97;5034672;28;20033;-76
2023/05/18 03:22:56;;;;;;;6.35;1.92;;;;;;;6.37;71.17;102699.88;5034426;28;20263;-76
2023/05/18 03:25:21;;;;;;;6.65;1.83;;;;;;;6.39;69.88;102705.06;5033400;28;20110;-76
2023/05/18 03:27:47;;;;;;;5.40;2.03;;;;;;;6.36;70.43;102703.28;5034444;28;20037;-76
2023/05/18 03:30:12;;;;;;;4.88;1.77;;;;;;;6.38;69.66;102699.03;5034139;28;20025;-76
2023/05/18 03:32:38;;;;;;;5.78;1.92;;;;;;;6.36;70.47;102702.41;5032710;28;20025;-76
2023/05/18 03:35:04;;;;;;;6.30;2.38;;;;;;;6.35;69.95;102700.66;5036117;28;20037;-75
2023/05/18 03:37:30;;;;;;;7.30;2.30;;;;;;;6.34;70.42;102704.06;5034541;28;20048;-75
2023/05/18 03:40:07;;;;;;;3.58;1.98;;;;;;;6.36;70.12;102697.22;5033193;28;20029;-76
2023/05/18 03:42:32;;;;;;;6.07;1.92;;;;;;;6.35;70.64;102700.66;5033972;28;20029;-75
2023/05/18 03:44:57;;;;;;;4.95;1.90;;;;;;;6.35;70.62;102693.78;5034342;28;20430;-76
2023/05/18 03:47:22;;;;;;;4.55;1.83;;;;;;;6.36;69.71;102692.06;5033901;28;20048;-76
2023/05/18 03:49:48;;;;;;;6.70;2.08;;;;;;;6.38;69.78;102700.72;5033682;28;20105;-76
2023/05/18 03:52:14;;;;;;;5.38;2.13;;;;;;;6.38;69.83;102704.19;5032293;28;20435;-76
2023/05/18 03:54:41;;;;;;;4.57;2.00;;;;;;;6.38;69.79;102705.91;5028977;28;20503;-76
2023/05/18 03:57:06;;;;;;;5.20;1.90;;;;;;;6.36;70.02;102705.88;5032499;28;20446;-76
2023/05/18 03:59:32;;;;;;;4.38;2.10;;;;;;;6.37;70.37;102706.72;5033460;28;20121;-76
2023/05/18 04:01:57;;;;;;;4.80;2.20;;;;;;;6.38;70.65;102705.91;5034266;28;20029;-76
2023/05/18 04:04:22;;;;;;;4.95;2.10;;;;;;;6.39;70.08;102707.66;5031178;28;20029;-76
2023/05/18 04:06:50;;;;;;;5.38;2.33;;;;;;;6.39;70.34;102707.66;5033444;28;20103;-75
2023/05/18 04:09:17;;;;;;;3.80;1.70;;;;;;;6.40;70.59;102709.41;5032343;28;20029;-76
2023/05/18 04:11:42;;;;;;;7.43;2.10;;;;;;;6.41;70.50;102708.56;5033589;28;20045;-76
2023/05/18 04:14:08;;;;;;;5.05;2.50;;;;;;;6.44;70.13;102708.63;5032114;28;20484;-75
2023/05/18 04:16:34;;;;;;;5.50;2.10;;;;;;;6.47;69.75;102712.97;5032380;28;20029;-75
2023/05/18 04:18:59;;;;;;;6.18;1.90;;;;;;;6.49;70.44;102708.72;5032277;28;20033;-76
2023/05/18 04:21:25;;;;;;;6.50;2.13;;;;;;;6.48;70.54;102719.91;5031427;28;20033;-76
2023/05/18 04:23:50;;;;;;;3.97;1.92;;;;;;;6.50;70.15;102718.22;5033497;28;20112;-76
2023/05/18 04:26:18;;;;;;;5.50;2.38;;;;;;;6.51;70.83;102718.25;5034079;28;20048;-75
2023/05/18 04:28:46;;;;;;;5.28;2.20;;;;;;;6.53;70.98;102715.72;5033347;28;20018;-76
2023/05/18 04:31:13;;;;;;;5.60;2.20;;;;;;;6.57;70.60;102724.41;5033540;28;20104;-76
2023/05/18 04:33:40;;;;;;;6.30;2.17;;;;;;;6.62;70.14;102727.97;5032422;28;20473;-75
2023/05/18 04:36:05;;;;;;;7.25;2.40;;;;;;;6.64;69.98;102723.69;5032310;28;20064;-76
2023/05/18 04:38:33;;;;;;;5.75;2.10;;;;;;;6.67;69.91;102727.22;5033246;28;20053;-76
2023/05/18 04:40:59;;;;;;;6.05;2.45;;;;;;;6.71;69.72;102729.88;5033095;28;20069;-76
2023/05/18 04:43:24;;;;;;;6.82;2.40;;;;;;;6.75;69.85;102729.97;5033796;28;20029;-75
2023/05/18 04:45:50;;;;;;;5.85;2.35;;;;;;;6.79;69.52;102733.47;5032647;28;20469;-76
2023/05/18 04:48:18;;;;;;;7.00;2.45;;;;;;;6.79;69.83;102736.06;5031636;28;20037;-76
2023/05/18 04:50:44;;;;;;;7.80;2.33;;;;;;;6.82;69.58;102728.38;5033052;28;20103;-76
2023/05/18 04:53:11;;;;;;;5.75;2.30;;;;;;;6.86;69.10;102730.19;5034498;28;20029;-75
2023/05/18 04:55:37;;;;;;;4.57;2.53;;;;;;;6.88;69.99;102727.63;5031961;28;20025;-75
2023/05/18 04:58:03;;;;;;;7.90;2.17;;;;;;;6.90;70.02;102734.59;5032142;28;20083;-75
2023/05/18 05:00:30;;;;;;;7.10;2.38;;;;;;;6.92;69.13;102734.59;5030943;28;20074;-76
2023/05/18 05:02:56;;;;;;;6.20;2.58;;;;;;;6.94;69.66;102735.50;5031966;28;20079;-75
2023/05/18 05:05:23;;;;;;;5.28;2.38;;;;;;;6.96;69.21;102736.41;5032605;28;20021;-75
2023/05/18 05:07:50;;;;;;;6.88;2.40;;;;;;;6.96;68.71;102728.66;5033119;28;20120;-76
2023/05/18 05:10:15;;;;;;;4.90;2.38;;;;;;;6.99;69.36;102737.34;5031853;28;20146;-75
2023/05/18 05:12:41;;;;;;;8.45;2.40;;;;;;;7.01;69.19;102745.13;5031539;28;20555;-75
2023/05/18 05:15:07;;;;;;;5.93;2.47;;;;;;;7.03;69.01;102743.44;5032874;28;20025;-75
2023/05/18 05:17:32;;;;;;;6.90;2.30;;;;;;;7.06;68.92;102743.50;5033358;28;20032;-75
2023/05/18 05:19:58;;;;;;;6.63;2.40;;;;;;;7.09;68.77;102748.75;5029194;28;20030;-75
2023/05/18 05:22:23;;;;;;;6.68;2.38;;;;;;;7.13;68.39;102745.38;5030902;28;20485;-75
2023/05/18 05:24:48;;;;;;;4.20;2.00;;;;;;;7.18;68.98;102747.16;5032764;28;20036;-75
2023/05/18 05:27:14;;;;;;;6.85;2.15;;;;;;;7.21;68.90;102747.22;5032598;28;20464;-76
2023/05/18 05:29:39;;;;;;;5.97;2.10;;;;;;;7.25;68.28;102743.88;5032565;28;20032;-75
2023/05/18 05:32:05;;;;;;;6.45;2.28;;;;;;;7.27;68.09;102743.03;5030584;28;20048;-76
2023/05/18 05:34:30;;;;;;;5.53;2.40;;;;;;;7.29;67.64;102743.94;5032637;28;20553;-76
2023/05/18 05:36:55;;;;;;;6.47;2.40;;;;;;;7.32;68.68;102745.75;5031832;28;20392;-76
2023/05/18 05:39:21;;;;;;;5.63;1.98;;;;;;;7.35;68.33;102745.78;5031202;28;20033;-76
2023/05/18 05:41:46;;;;;;;4.53;1.85;;;;;;;7.36;68.21;102747.53;5032337;28;20116;-76
2023/05/18 05:44:11;;;;;;;5.63;2.35;;;;;;;7.40;67.81;102740.69;5031257;28;20130;-75
2023/05/18 05:46:36;;;;;;;8.55;2.38;;;;;;;7.40;67.69;102748.47;5029540;28;20111;-76
2023/05/18 05:49:02;;;;;;;5.80;2.25;;;;;;;7.43;68.24;102744.22;5031096;28;20472;-75
2023/05/18 05:51:28;;;;;;;6.63;2.40;;;;;;;7.47;68.02;102744.28;5031661;28;20037;-75
2023/05/18 05:53:53;;;;;;;5.18;2.25;;;;;;;7.55;68.67;102737.50;5031193;28;20182;-75
2023/05/18 05:56:18;;;;;;;11.02;2.72;;;;;;;7.64;67.92;102741.97;5028659;28;20025;-75
2023/05/18 05:58:44;;;;;;;4.93;2.40;;;;;;;7.69;67.85;102743.78;5034696;28;20083;-75
2023/05/18 06:01:09;;;;;;;5.82;2.35;;;;;;;7.75;67.69;102745.63;5031011;28;20500;-76
2023/05/18 06:03:35;;;;;;;8.38;2.35;;;;;;;7.78;67.24;102745.66;5030275;28;20036;-75
2023/05/18 06:06:01;;;;;;;6.00;2.80;;;;;;;7.81;67.39;102744.84;5029858;28;20029;-76
2023/05/18 06:08:26;;;;;;;6.03;2.50;;;;;;;7.88;67.15;102747.56;5030839;28;20056;-76
2023/05/18 06:10:52;;;;;;;4.90;2.25;;;;;;;7.95;67.08;102742.47;5031618;28;20092;-75
2023/05/18 06:13:17;;;;;;;6.43;2.63;;;;;;;8.00;66.75;102749.50;5031469;28;20052;-76
2023/05/18 06:15:43;;;;;;;6.55;2.60;;;;;;;8.05;66.86;102744.38;5028468;28;20485;-75
2023/05/18 06:18:08;;;;;;;4.38;2.45;;;;;;;8.10;67.29;102747.91;5030894;28;20017;-76
2023/05/18 06:20:33;;;;;;;10.38;2.60;;;;;;;8.17;67.22;102749.75;5032461;28;20021;-76
2023/05/18 06:22:58;;;;;;;5.82;3.00;;;;;;;8.22;66.16;102751.53;5031462;28;20033;-76
2023/05/18 06:25:24;;;;;;;7.75;2.90;;;;;;;8.26;65.87;102743.81;5032352;28;20049;-76
2023/05/18 06:27:49;;;;;;;6.28;2.70;;;;;;;8.27;66.46;102742.97;5031337;28;20481;-76
2023/05/18 06:30:15;;;;;;;6.57;2.70;;;;;;;8.31;66.33;102744.78;5030849;28;20106;-76
2023/05/18 06:32:40;;;;;;;6.03;2.85;;;;;;;8.35;66.14;102749.16;5031367;28;20029;-76
2023/05/18 06:35:06;;;;;;;7.30;3.10;;;;;;;8.39;66.30;102750.06;5031190;28;20033;-76
2023/05/18 06:37:31;;;;;;;6.45;2.55;;;;;;;8.46;66.11;102746.69;5029692;28;20017;-76
2023/05/18 06:39:57;;;;;;;10.20;3.00;;;;;;;8.55;67.37;102751.16;5029875;28;20092;-75
2023/05/18 06:42:23;;;;;;;4.88;2.42;;;;;;;8.65;66.31;102753.03;5028742;28;20473;-76
2023/05/18 06:44:49;;;;;;;5.55;2.80;;;;;;;8.73;66.19;102747.06;5029639;28;20040;-76
2023/05/18 06:47:15;;;;;;;7.30;2.72;;;;;;;8.81;66.89;102748.91;5030639;28;20022;-76
2023/05/18 06:49:40;;;;;;;9.05;3.05;;;;;;;8.88;65.88;102744.66;5029336;28;20049;-76
2023/05/18 06:52:07;;;;;;;8.57;3.28;;;;;;;8.93;66.64;102750.78;5030141;28;20042;-76
2023/05/18 06:54:33;;;;;;;6.97;3.10;;;;;;;9.00;66.28;102750.88;5029840;28;20025;-76
2023/05/18 06:56:58;;;;;;;5.68;3.05;;;;;;;9.04;64.77;102750.91;5030838;28;20021;-76
2023/05/18 06:59:23;;;;;;;7.13;3.05;;;;;;;9.06;64.31;102749.22;5029936;28;20025;-76
2023/05/18 07:01:48;;;;;;;4.88;2.75;;;;;;;9.10;65.81;102752.72;5030748;28;20033;-76
2023/05/18 07:04:14;;;;;;;8.13;2.78;;;;;;;9.17;65.41;102757.13;5029697;28;20033;-76
2023/05/18 07:06:40;;;;;;;7.93;2.80;;;;;;;9.23;63.36;102759.78;5029558;28;20018;-76
2023/05/18 07:09:06;;;;;;;9.02;2.70;;;;;;;9.31;64.00;102759.00;5029815;28;20025;-76
2023/05/18 07:11:32;;;;;;;8.20;2.70;;;;;;;9.38;63.29;102766.00;5030547;28;20096;-75
2023/05/18 07:13:57;;;;;;;4.60;2.40;;;;;;;9.48;65.64;102764.38;5027661;28;20160;-75
2023/05/18 07:16:22;;;;;;;5.95;2.80;;;;;;;9.55;63.95;102768.75;5031671;28;20033;-76
2023/05/18 07:18:47;;;;;;;6.22;2.60;;;;;;;9.63;62.83;102768.84;5029132;28;20112;-75
2023/05/18 07:21:13;;;;;;;7.82;2.70;;;;;;;9.69;63.61;102763.69;5029514;28;20033;-75
2023/05/18 07:23:38;;;;;;;4.88;2.30;;;;;;;9.76;64.46;102762.88;5029432;28;20017;-75
2023/05/18 07:26:03;;;;;;;7.53;2.72;;;;;;;9.80;62.40;102759.47;5024839;28;20069;-76
2023/05/18 07:28:29;;;;;;;5.78;2.50;;;;;;;9.85;62.51;102768.19;5025854;28;20037;-76
2023/05/18 07:30:54;;;;;;;5.95;2.75;;;;;;;9.87;61.70;102760.38;5027407;28;20117;-76
2023/05/18 07:33:19;;;;;;;5.88;2.25;;;;;;;9.91;62.32;102764.75;5028654;28;20191;-76
2023/05/18 07:35:44;;;;;;;6.97;3.13;;;;;;;9.93;62.71;102769.94;5026688;28;20037;-76
2023/05/18 07:38:10;;;;;;;5.65;2.65;;;;;;;9.98;62.84;102784.75;5027739;28;20033;-75
2023/05/18 07:40:35;;;;;;;6.05;2.60;;;;;;;10.02;61.71;102775.25;5029273;28;20106;-75
2023/05/18 07:43:00;;;;;;;5.50;2.55;;;;;;;10.06;61.24;102783.94;5027554;28;20460;-75
2023/05/18 07:45:25;;;;;;;6.80;2.50;;;;;;;10.07;61.00;102781.34;5025894;28;20069;-76
2023/05/18 07:47:51;;;;;;;6.93;2.58;;;;;;;10.10;61.87;102783.97;5026179;28;20037;-76
2023/05/18 07:50:16;;;;;;;9.55;3.28;;;;;;;10.12;60.32;102787.44;5027579;28;20530;-77
2023/05/18 07:52:41;;;;;;;8.02;2.90;;;;;;;10.14;60.53;102790.94;5022475;28;20060;-76
2023/05/18 07:55:07;;;;;;;8.20;3.15;;;;;;;10.18;60.89;102786.59;5022950;28;20092;-76
2023/05/18 07:57:34;;;;;;;7.32;2.40;;;;;;;10.22;59.77;102788.38;5022619;28;20554;-75
2023/05/18 07:59:59;;;;;;;8.20;2.90;;;;;;;10.27;60.09;102796.22;5021346;28;20481;-75
2023/05/18 08:02:24;;;;;;;7.43;3.03;;;;;;;10.35;63.38;102794.56;5021098;28;20029;-75
2023/05/18 08:04:50;;;;;;;7.30;2.40;;;;;;;10.40;60.15;102794.59;5023080;28;20033;-77
2023/05/18 08:07:17;;;;;;;7.22;2.13;;;;;;;10.44;60.51;102784.22;5022418;28;20034;-80
2023/05/18 08:09:43;;;;;;;5.63;2.70;;;;;;;10.46;59.60;102792.91;5023577;28;20032;-76
2023/05/18 08:12:08;;;;;;;6.40;2.30;;;;;;;10.48;59.94;102790.34;5024020;28;20037;-76
2023/05/18 08:14:34;;;;;;;4.50;2.28;;;;;;;10.51;58.57;102794.69;5025060;28;20374;-76
2023/05/18 08:16:59;;;;;;;6.35;2.53;;;;;;;10.56;61.22;102798.19;5023237;28;20075;-75
2023/05/18 08:19:25;;;;;;;5.10;2.10;;;;;;;10.61;60.37;102807.75;5022428;28;20519;-76
2023/05/18 08:21:50;;;;;;;7.07;2.35;;;;;;;10.68;59.52;102797.38;5023095;28;20116;-76
2023/05/18 08:24:15;;;;;;;6.72;2.38;;;;;;;10.74;60.43;102790.47;5021594;28;20068;-76
2023/05/18 08:26:41;;;;;;;8.90;2.42;;;;;;;10.82;59.40;102797.44;5016961;28;21516;-76
2023/05/18 08:29:09;;;;;;;5.30;2.45;;;;;;;10.87;57.52;102788.78;5022016;28;20029;-76
2023/05/18 08:31:40;;;;;;;6.57;2.50;;;;;;;10.93;58.87;102788.81;5022997;28;20329;-76
2023/05/18 08:34:06;;;;;;;7.78;2.55;;;;;;;10.97;58.13;102779.28;5020997;28;20469;-77
2023/05/18 08:36:35;;;;;;;5.35;2.40;;;;;;;11.02;60.60;102782.78;5020348;28;20460;-76
2023/05/18 08:39:01;;;;;;;7.10;2.50;;;;;;;11.05;58.84;102781.91;5017405;28;20029;-76
2023/05/18 08:41:37;;;;;;;6.25;2.17;;;;;;;11.05;58.74;102782.78;5020163;28;20040;-75
2023/05/18 08:44:08;;;;;;;7.55;2.50;;;;;;;11.07;58.31;102786.28;5022453;28;20079;-76
2023/05/18 08:46:38;;;;;;;5.85;2.17;;;;;;;11.11;57.15;102775.84;5022568;28;20129;-77
2023/05/18 08:49:04;;;;;;;6.65;2.05;;;;;;;11.18;58.94;102780.22;5023011;28;20029;-76
2023/05/18 08:51:33;;;;;;;5.75;2.30;;;;;;;11.26;58.47;102775.91;5022249;28;20503;-77
2023/05/18 08:54:00;;;;;;;5.97;2.58;;;;;;;11.33;57.35;102772.44;5021897;28;20036;-77
2023/05/18 08:56:25;;;;;;;6.32;2.22;;;;;;;11.39;58.64;102772.47;5025666;28;20487;-77
2023/05/18 08:58:54;;;;;;;7.68;2.35;;;;;;;11.47;55.37;102761.16;5024533;28;20025;-77
2023/05/18 09:01:21;;;;;;;4.03;1.73;;;;;;;11.55;59.74;102764.66;5026207;28;20033;-77
2023/05/18 09:03:49;;;;;;;7.45;2.08;;;;;;;11.61;55.47;102756.88;5020994;28;20061;-77
2023/05/18 09:06:15;;;;;;;6.88;2.30;;;;;;;11.59;54.55;102762.94;5025249;28;20716;-77
2023/05/18 09:08:40;;;;;;;4.90;2.10;;;;;;;11.65;59.51;102761.19;5025195;28;20037;-77
2023/05/18 09:11:07;;;;;;;4.65;2.10;;;;;;;11.79;62.82;102763.81;5026891;28;20025;-76
2023/05/18 09:13:32;;;;;;;6.80;2.22;;;;;;;11.88;60.79;102759.44;5025707;28;20128;-76
2023/05/18 09:15:57;;;;;;;9.25;2.40;;;;;;;11.95;58.86;102762.09;5026835;28;20108;-77
2023/05/18 09:18:23;;;;;;;8.35;2.53;;;;;;;12.00;59.70;102764.72;5026108;28;20494;-77
2023/05/18 09:20:48;;;;;;;6.38;2.10;;;;;;;11.98;55.62;102754.25;5025176;28;21305;-76
2023/05/18 09:23:16;;;;;;;5.45;2.03;;;;;;;11.99;60.21;102761.22;5026403;28;20091;-76
2023/05/18 09:25:48;;;;;;;4.45;2.00;;;;;;;12.02;57.26;102762.09;5025811;28;20036;-76
2023/05/18 09:28:25;;;;;;;4.45;2.30;;;;;;;12.01;57.99;102756.03;5025092;28;20045;-76
2023/05/18 09:30:52;;;;;;;5.25;2.17;;;;;;;11.99;56.09;102756.00;5025195;28;20033;-76
2023/05/18 09:33:20;;;;;;;6.22;2.03;;;;;;;12.04;56.67;102760.34;5025770;28;20099;-76
2023/05/18 09:35:46;;;;;;;5.60;2.50;;;;;;;12.07;54.68;102760.34;5025347;28;20491;-76
2023/05/18 09:38:16;;;;;;;5.53;2.30;;;;;;;12.07;54.16;102749.94;5022648;28;20033;-76
2023/05/18 09:40:45;;;;;;;7.75;2.28;;;;;;;12.07;54.99;102755.13;5022220;28;20083;-76
2023/05/18 09:43:10;;;;;;;4.43;2.20;;;;;;;12.07;55.01;102757.75;5024785;28;20037;-77
2023/05/18 09:45:41;;;;;;;5.57;1.90;;;;;;;12.15;58.80;102753.38;5023919;28;20040;-77
2023/05/18 09:48:06;;;;;;;4.70;2.30;;;;;;;12.24;56.54;102750.75;5022532;28;20037;-77
2023/05/18 09:50:32;;;;;;;7.10;2.42;;;;;;;12.30;54.89;102749.88;5021858;28;20024;-77
2023/05/18 09:52:59;;;;;;;6.45;1.80;;;;;;;12.33;56.10;102751.59;5023102;28;20037;-77
2023/05/18 09:55:24;;;;;;;4.22;1.60;;;;;;;12.32;56.38;102750.75;5019044;28;20082;-77
2023/05/18 09:57:50;;;;;;;5.57;2.05;;;;;;;12.28;52.78;102746.41;5020540;28;20029;-76
2023/05/18 10:00:18;;;;;;;5.38;2.20;;;;;;;12.26;53.33;102749.03;5023539;28;21490;-77
2023/05/18 10:02:49;;;;;;;5.97;2.20;;;;;;;12.25;53.26;102749.00;5021163;28;20033;-77
2023/05/18 10:05:32;;;;;;;5.63;2.42;;;;;;;12.23;52.64;102746.41;5025824;28;20459;-77
2023/05/18 10:07:58;;;;;;;5.70;2.28;;;;;;;12.21;53.02;102742.94;5024239;28;20491;-77
2023/05/18 10:10:26;;;;;;;5.18;1.98;;;;;;;12.24;55.33;102737.72;5023909;28;20029;-77
2023/05/18 10:12:53;;;;;;;7.72;2.47;;;;;;;12.27;51.93;102742.94;5024463;28;20030;-77
2023/05/18 10:15:22;;;;;;;5.75;2.50;;;;;;;12.28;52.69;102734.25;5023872;28;20736;-77
2023/05/18 10:17:49;;;;;;;8.32;2.60;;;;;;;12.32;53.04;102734.19;5024189;28;20858;-77
2023/05/18 10:20:20;;;;;;;6.30;2.70;;;;;;;12.34;52.67;102729.84;5023998;28;20057;-77
2023/05/18 10:22:47;;;;;;;6.22;2.80;;;;;;;12.36;52.08;102730.72;5024479;28;20048;-78
2023/05/18 10:25:19;;;;;;;5.78;2.70;;;;;;;12.36;52.76;102720.28;5024289;28;20146;-77
2023/05/18 10:27:49;;;;;;;6.20;2.90;;;;;;;12.37;52.69;102722.91;5022887;28;20757;-77
2023/05/18 10:30:16;;;;;;;5.10;2.78;;;;;;;12.40;54.44;102725.47;5023062;28;20159;-77
2023/05/18 10:32:42;;;;;;;6.82;2.80;;;;;;;12.44;51.80;102721.13;5025817;28;20028;-77
2023/05/18 10:35:09;;;;;;;8.98;3.03;;;;;;;12.48;53.53;102721.97;5023828;28;20033;-77
2023/05/18 10:37:40;;;;;;;5.85;2.53;;;;;;;12.48;51.32;102720.22;5023155;28;20174;-77
2023/05/18 10:40:07;;;;;;;6.97;2.70;;;;;;;12.51;52.39;102715.00;5021614;28;20047;-77
2023/05/18 10:42:33;;;;;;;5.82;2.78;;;;;;;12.52;53.18;102708.91;5021431;28;20504;-77
2023/05/18 10:45:00;;;;;;;7.75;2.85;;;;;;;12.55;54.56;102716.75;5023076;28;20048;-77
2023/05/18 10:47:26;;;;;;;5.82;2.80;;;;;;;12.59;54.03;102707.13;5022286;28;20479;-77
2023/05/18 10:49:52;;;;;;;5.20;2.35;;;;;;;12.62;53.85;102714.13;5023751;28;20083;-77
2023/05/18 10:52:19;;;;;;;8.00;2.80;;;;;;;12.63;52.77;102708.00;5023629;28;20488;-77
2023/05/18 10:54:45;;;;;;;8.52;2.83;;;;;;;12.64;52.83;102705.38;5024491;28;20038;-77
2023/05/18 10:57:14;;;;;;;7.25;2.60;;;;;;;12.66;52.24;102701.03;5025013;28;20036;-77
2023/05/18 10:59:42;;;;;;;6.50;2.95;;;;;;;12.68;53.30;102706.22;5023068;28;20029;-77
2023/05/18 11:02:12;;;;;;;6.57;2.72;;;;;;;12.66;52.69;102695.81;5022851;28;20806;-77
2023/05/18 11:04:39;;;;;;;6.45;2.60;;;;;;;12.68;52.17;102703.63;5027082;28;20068;-77
2023/05/18 11:07:09;;;;;;;6.07;2.33;;;;;;;12.75;53.83;102703.59;5026446;28;20048;-77
2023/05/18 11:09:35;;;;;;;5.03;2.40;;;;;;;12.81;51.59;102707.06;5023898;28;20060;-77
2023/05/18 11:12:00;;;;;;;4.95;2.28;;;;;;;12.82;53.04;102707.03;5024723;28;20558;-77
2023/05/18 11:14:30;;;;;;;6.13;2.80;;;;;;;12.84;50.63;102702.66;5022675;28;20499;-77
2023/05/18 11:17:19;;;;;;;6.28;2.50;;;;;;;12.87;52.97;102692.22;5025640;28;20498;-77
2023/05/18 11:20:08;;;;;;;5.43;2.47;;;;;;;12.89;53.36;102685.22;5025443;28;20392;-78
2023/05/18 11:22:50;;;;;;;4.07;2.15;;;;;;;12.96;56.52;102686.06;5025198;28;20414;-77
2023/05/18 11:25:24;;;;;;;;;;;;;;;13.04;54.86;102691.25;5028420;28;20033;-77
2023/05/18 11:28:01;;;;;;;5.43;2.30;;;;;;;13.06;51.47;102692.94;5025305;28;19913;-77
2023/05/18 11:30:47;;;;;;;7.05;2.55;;;;;;;13.09;53.39;102686.84;5026495;28;20437;-77